Agnes, Georgia
Current Conditions -  °F | °C
As of 9:15 PM on Monday 22 Dec 2014 (Local Time) from KHQU Reporting Station
Overcast Overcast  
Wind Chill: 43°   Ceiling: 300
Heat Index: 46°   Visibility: 1.7mi
Dew Point: 46°   Wind: 5mph
Humidity: 100%   Direction: 30°NNE
Pressure: 30.03"   Gusts: NA
Location:  33.7816°N, 82.4511°W
Report Text: KHQU 230215Z AUTO 03004KT 1 3/4SM OVC003 08/08 A3003 RMK AO1 T00750075
Loading
Personal Weather Stations






























Interactive Weather Map New forecast layout! Learn more

10-Day Weather Forecast

Advertisements
Track Severe Weather on mobile